Meteo Giornale » Osservazioni meteo Messico » Mexico City-Licenci

ore: 19:43 - Osservazioni Meteo Mexico City-Licenci
Lat. 19° 26' N Lon. 99° 6' W Alt. 2238 metri s.l.m.

coperto America/Mexico_City

19 °C

Coperto

Temp. 24 Ore

17 °C

28 °C

Est/Sud-Est

16.7 Km/h

Dew point 10 °C

Umidità 55 %

Visibilità  8 Km

Il sole sorge alle ore 06:56

Il sole tramonta alle ore 20:11

Data e Ora Cielo e Fenomeni T °C DP °C Um. % Pres. hPa Vis. km Vento km/h
Oggi h: 19:43 coperto Coperto 19 10 55 1023 8 E/SE 16.7
Oggi h: 19:25 coperto_pioggia Pioggia 20 11 56 1023 8 E/NE 29.6
Oggi h: 19:18 coperto Coperto 20 11 56 1023 8 E/NE 27.8
Oggi h: 18:48 coperto Coperto 23 11 46 1021 10 E/SE 35.2
Oggi h: 18:40 coperto Coperto 23 11 46 1021 11 E/SE 38.8
Oggi h: 18:21 coperto Coperto 26 10 36 1021 11 E 33.3
Oggi h: 17:51 molto_nuvoloso Molto Nuvoloso 28 4 21 1020 13 N/NE 11.1
Oggi h: 16:43 molto_nuvoloso Molto Nuvoloso 27 3 21 1021 13 N 11.1
Oggi h: 15:43 molto_nuvoloso Molto Nuvoloso 28 2 18 1022 13 N/NE 14.8
Oggi h: 14:47 molto_nuvoloso Molto Nuvoloso 27 3 21 1023 13 N/NE 13
Oggi h: 13:42 molto_nuvoloso Molto Nuvoloso 26 6 27 1024 13 E 16.7
Oggi h: 12:44 molto_nuvoloso Molto Nuvoloso 25 6 29 1025 10 N 0
Oggi h: 12:33 molto_nuvoloso Molto Nuvoloso 24 8 35 1025 10 N 5.5
Oggi h: 11:43 molto_nuvoloso Molto Nuvoloso 22 10 46 1026 10 N/NE 7.4
Oggi h: 10:43 coperto Coperto 21 10 49 1026 11 E/NE 9.3
Oggi h: 09:48 coperto Coperto 19 10 55 1026 11 NE 7.4
Oggi h: 08:42 molto_nuvoloso Molto Nuvoloso 18 10 59 1026 13 NE 11.1
Oggi h: 07:41 molto_nuvoloso Molto Nuvoloso 17 10 63 1026 13 N 0
Oggi h: 06:49 molto_nuvoloso Molto Nuvoloso 17 10 63 1025 13 SO 11.1
Oggi h: 05:42 molto_nuvoloso Molto Nuvoloso 17 9 59 1025 13 N 0
Oggi h: 04:41 coperto Coperto 18 10 59 1025 10 N 5.5
Oggi h: 03:45 coperto Coperto 18 10 59 1025 10 N 3.7
Oggi h: 02:49 molto_nuvoloso Molto Nuvoloso 19 9 52 1026 10 N 5.5
Oggi h: 01:50 molto_nuvoloso Molto Nuvoloso 19 8 48 1026 10 N 5.5
Oggi h: 00:51 molto_nuvoloso Molto Nuvoloso 18 7 48 1027 10 S/SE 13
Ieri h: 23:44 molto_nuvoloso Molto Nuvoloso 19 10 55 1026 10 O/SO 16.7
Ieri h: 23:43 molto_nuvoloso Molto Nuvoloso 19 10 55 1026 10 O/SO 16.7
Ieri h: 22:46 molto_nuvoloso Molto Nuvoloso 21 11 52 1026 10 O/SO 18.5
Ieri h: 21:43 molto_nuvoloso Molto Nuvoloso 22 9 43 1025 13 E 11.1
Ieri h: 20:48 coperto Coperto 22 10 46 1024 10 E 14.8
Ieri h: 20:39 coperto Coperto 22 10 46 1024 10 E 24